Time;durP1;ratioP1;P1;durP2;ratioP2;P2;SDS_P1;SDS_P2;PMS_P1;PMS_P2;Temp;Humidity;BMP_temperature;BMP_pressure;BME280_temperature;BME280_humidity;BME280_pressure;Samples;Min_cycle;Max_cycle;Signal;HPM_P1;HPM_P2
2022/11/07 00:01:20;;;;;;;3.30;2.10;;;12.40;99.90;;;;;;4842737;29;20313;-76
2022/11/07 00:03:46;;;;;;;3.00;2.17;;;12.40;99.90;;;;;;4842885;29;20947;-76
2022/11/07 00:06:11;;;;;;;2.63;2.07;;;12.40;99.90;;;;;;4842699;29;20565;-76
2022/11/07 00:08:37;;;;;;;6.27;1.80;;;12.40;99.90;;;;;;4842866;29;20242;-76
2022/11/07 00:11:03;;;;;;;3.10;2.33;;;12.50;99.90;;;;;;4842875;29;20185;-76
2022/11/07 00:13:29;;;;;;;4.00;2.40;;;12.50;99.90;;;;;;4842514;29;20187;-77
2022/11/07 00:16:04;;;;;;;5.10;2.40;;;12.50;99.90;;;;;;4842642;29;20431;-76
2022/11/07 00:18:30;;;;;;;2.63;1.77;;;12.40;99.90;;;;;;4842364;29;20646;-76
2022/11/07 00:21:00;;;;;;;3.70;2.50;;;12.30;99.90;;;;;;4842546;29;20458;-76
2022/11/07 00:23:26;;;;;;;5.13;1.83;;;12.30;99.90;;;;;;4842558;29;20465;-76
2022/11/07 00:25:51;;;;;;;2.20;1.80;;;12.30;99.90;;;;;;4842279;29;20424;-76
2022/11/07 00:28:17;;;;;;;2.60;2.00;;;12.40;99.90;;;;;;4842368;29;20197;-75
2022/11/07 00:30:42;;;;;;;5.53;1.93;;;12.50;99.90;;;;;;4842231;29;20222;-75
2022/11/07 00:33:08;;;;;;;3.03;2.37;;;12.60;99.90;;;;;;4842157;29;20549;-75
2022/11/07 00:35:33;;;;;;;3.57;1.83;;;12.60;99.90;;;;;;4842376;29;20179;-75
2022/11/07 00:37:59;;;;;;;4.00;1.67;;;12.60;99.90;;;;;;4842249;29;20179;-75
2022/11/07 00:40:24;;;;;;;2.40;1.90;;;12.50;99.90;;;;;;4842313;29;20186;-75
2022/11/07 00:42:50;;;;;;;2.17;1.97;;;12.50;99.90;;;;;;4842039;29;20558;-76
2022/11/07 00:45:16;;;;;;;3.57;2.07;;;12.40;99.90;;;;;;4842270;29;20606;-75
2022/11/07 00:47:41;;;;;;;2.93;1.53;;;12.40;99.90;;;;;;4842157;29;20600;-76
2022/11/07 00:50:07;;;;;;;2.20;1.57;;;12.50;99.90;;;;;;4842010;29;20577;-76
2022/11/07 00:52:33;;;;;;;3.73;1.93;;;12.40;99.90;;;;;;4842057;29;20218;-76
2022/11/07 00:54:58;;;;;;;3.73;1.67;;;12.40;99.90;;;;;;4841982;29;20265;-74
2022/11/07 00:57:24;;;;;;;2.27;1.90;;;12.60;99.90;;;;;;4842027;29;20183;-74
2022/11/07 00:59:49;;;;;;;4.23;2.03;;;12.60;99.90;;;;;;4825466;29;20174;-74
2022/11/07 01:02:15;;;;;;;5.77;2.00;;;12.40;99.90;;;;;;4841975;29;20669;-74
2022/11/07 01:07:24;;;;;;;1.90;1.40;;;12.60;99.90;;;;;;4841848;29;20269;-74
2022/11/07 01:09:50;;;;;;;1.87;1.73;;;12.60;99.90;;;;;;4825461;29;20475;-74
2022/11/07 01:12:15;;;;;;;1.97;1.60;;;12.70;99.90;;;;;;4841791;29;20214;-76
2022/11/07 01:14:41;;;;;;;2.97;1.90;;;12.70;99.90;;;;;;4841705;29;20241;-77
2022/11/07 01:17:07;;;;;;;1.63;1.37;;;12.60;99.90;;;;;;4844147;29;20194;-91
2022/11/07 01:19:33;;;;;;;4.87;1.63;;;12.60;99.90;;;;;;4841647;29;20183;-80
2022/11/07 01:21:58;;;;;;;1.70;1.23;;;12.60;99.90;;;;;;4825351;29;20443;-80
2022/11/07 01:24:24;;;;;;;4.60;1.97;;;12.50;99.90;;;;;;4841746;29;20185;-80
2022/11/07 01:26:50;;;;;;;2.27;1.80;;;12.40;99.90;;;;;;4841363;29;20566;-80
2022/11/07 01:29:17;;;;;;;2.63;1.70;;;12.40;99.90;;;;;;4841532;29;20190;-80
2022/11/07 01:31:43;;;;;;;1.70;1.50;;;12.40;99.90;;;;;;4841376;29;20971;-83
2022/11/07 05:31:57;;;;;;;2.50;1.60;;;12.10;99.90;;;;;;5237786;23;20549;-74
2022/11/07 05:34:23;;;;;;;3.33;2.10;;;12.10;99.90;;;;;;4955162;29;20759;-75
2022/11/07 05:36:48;;;;;;;8.53;2.30;;;12.10;99.90;;;;;;4953700;29;20243;-77
2022/11/07 05:39:14;;;;;;;2.53;1.87;;;12.10;99.90;;;;;;4953944;29;20256;-76
2022/11/07 05:41:39;;;;;;;6.90;2.20;;;12.10;99.90;;;;;;4953889;29;20336;-75
2022/11/07 05:44:05;;;;;;;2.37;1.90;;;12.20;99.90;;;;;;4953716;29;20545;-74
2022/11/07 05:46:30;;;;;;;7.43;2.70;;;12.10;99.90;;;;;;4953637;29;20214;-75
2022/11/07 05:48:56;;;;;;;4.73;1.97;;;12.20;99.90;;;;;;4954203;29;20187;-87
2022/11/07 05:51:21;;;;;;;4.53;2.73;;;12.20;99.90;;;;;;4954235;29;20187;-81
2022/11/07 05:53:47;;;;;;;6.50;2.20;;;12.30;99.90;;;;;;4954074;29;20179;-82
2022/11/07 05:56:12;;;;;;;5.27;2.00;;;12.20;99.90;;;;;;4953988;29;20202;-87
2022/11/07 05:58:38;;;;;;;5.50;2.53;;;12.20;99.90;;;;;;4953884;29;20190;-81
2022/11/07 06:01:05;;;;;;;5.63;2.30;;;12.10;99.90;;;;;;4950348;29;20171;-84
2022/11/07 06:03:31;;;;;;;4.30;1.87;;;12.20;99.90;;;;;;4937917;29;20202;-81
2022/11/07 06:05:57;;;;;;;5.33;1.67;;;12.20;99.90;;;;;;4948554;29;20486;-82
2022/11/07 06:08:23;;;;;;;2.80;1.80;;;12.20;99.90;;;;;;4936110;29;20477;-80
2022/11/07 06:10:48;;;;;;;2.60;1.90;;;12.20;99.90;;;;;;4950682;29;20849;-81
2022/11/07 06:13:15;;;;;;;9.30;1.90;;;12.30;99.90;;;;;;4953622;29;20773;-80
2022/11/07 06:15:42;;;;;;;5.57;2.43;;;12.30;99.90;;;;;;4953891;29;20193;-84
2022/11/07 06:18:12;;;;;;;5.13;2.23;;;12.20;99.90;;;;;;4953669;29;20944;-81
2022/11/07 06:20:37;;;;;;;9.90;2.33;;;12.30;99.90;;;;;;4953730;29;20430;-76
2022/11/07 06:23:05;;;;;;;4.23;2.17;;;12.20;99.90;;;;;;4953591;29;20508;-76
2022/11/07 06:25:31;;;;;;;5.13;1.83;;;12.20;99.90;;;;;;4953280;28;20174;-81
2022/11/07 06:28:01;;;;;;;5.00;1.97;;;12.20;99.90;;;;;;4957009;29;20473;-81
2022/11/07 06:30:27;;;;;;;4.40;2.00;;;12.20;99.90;;;;;;4957501;29;20426;-81
2022/11/07 06:32:52;;;;;;;3.27;1.97;;;12.20;99.90;;;;;;4953543;29;20975;-81
2022/11/07 06:35:18;;;;;;;6.20;2.67;;;12.10;99.90;;;;;;4948233;29;20649;-80
2022/11/07 06:37:43;;;;;;;7.00;2.17;;;12.30;99.90;;;;;;4947047;29;20702;-80
2022/11/07 06:40:10;;;;;;;5.83;2.07;;;12.30;99.90;;;;;;4942205;29;20583;-81
2022/11/07 06:42:35;;;;;;;3.27;1.97;;;12.30;99.90;;;;;;4947853;29;20720;-81
2022/11/07 06:45:01;;;;;;;7.23;4.07;;;12.30;99.90;;;;;;4938772;29;20431;-81
2022/11/07 06:47:26;;;;;;;6.53;2.37;;;12.40;99.90;;;;;;4945928;29;20753;-81
2022/11/07 06:49:52;;;;;;;2.37;1.80;;;12.30;99.90;;;;;;4940971;29;20181;-81
2022/11/07 06:52:17;;;;;;;6.70;2.50;;;12.30;99.90;;;;;;4943412;29;20597;-81
2022/11/07 06:54:43;;;;;;;8.90;2.30;;;12.40;99.90;;;;;;4938484;29;20175;-81
2022/11/07 06:57:09;;;;;;;10.03;2.30;;;12.30;99.90;;;;;;4940958;29;20233;-80
2022/11/07 06:59:34;;;;;;;5.00;2.10;;;12.30;99.90;;;;;;4956034;29;20186;-81
2022/11/07 07:02:00;;;;;;;5.03;1.73;;;12.40;99.90;;;;;;4957576;29;20585;-81
2022/11/07 07:04:26;;;;;;;6.57;3.10;;;12.40;99.90;;;;;;4957273;29;20225;-83
2022/11/07 07:06:51;;;;;;;7.63;2.00;;;12.30;99.90;;;;;;4957516;29;20206;-83
2022/11/07 07:09:17;;;;;;;12.27;2.37;;;12.30;99.90;;;;;;4957522;29;20649;-83
2022/11/07 07:11:44;;;;;;;8.37;2.40;;;12.40;99.90;;;;;;4957590;29;20273;-81
2022/11/07 07:14:10;;;;;;;8.27;3.97;;;12.40;99.90;;;;;;4957495;29;20520;-82
2022/11/07 07:16:36;;;;;;;8.27;3.90;;;12.40;99.90;;;;;;4957511;29;20436;-82
2022/11/07 07:19:02;;;;;;;8.90;2.87;;;12.50;99.90;;;;;;4957403;29;20434;-82
2022/11/07 07:21:28;;;;;;;9.33;3.37;;;12.50;99.90;;;;;;4957310;29;20218;-82
2022/11/07 07:23:53;;;;;;;11.53;2.80;;;12.60;99.90;;;;;;4957391;29;20418;-82
2022/11/07 07:26:19;;;;;;;8.07;3.80;;;12.60;99.90;;;;;;4957275;29;20253;-82
2022/11/07 07:28:44;;;;;;;7.05;2.92;;;12.60;99.90;;;;;;4956868;29;20436;-85
2022/11/07 07:31:12;;;;;;;6.53;2.60;;;12.70;99.90;;;;;;4957018;29;20309;-87
2022/11/07 07:33:39;;;;;;;10.13;2.60;;;12.70;99.90;;;;;;4957703;29;20183;-87
2022/11/07 07:36:05;;;;;;;15.07;2.57;;;12.70;99.90;;;;;;4957802;29;20926;-87
2022/11/07 07:38:30;;;;;;;6.93;2.70;;;12.70;99.90;;;;;;4957248;28;20433;-87
2022/11/07 07:40:57;;;;;;;7.63;2.40;;;12.60;99.90;;;;;;4957523;29;20426;-87
2022/11/07 07:43:23;;;;;;;8.73;2.73;;;12.70;99.90;;;;;;4940101;29;20214;-88
2022/11/07 07:45:48;;;;;;;5.23;2.77;;;12.80;99.90;;;;;;4957114;29;20457;-90
2022/11/07 07:48:14;;;;;;;6.00;2.30;;;12.80;99.90;;;;;;4957541;29;20313;-90
2022/11/07 07:50:39;;;;;;;6.40;4.03;;;12.90;99.90;;;;;;4957370;29;20179;-90
2022/11/07 07:53:05;;;;;;;8.13;3.00;;;12.90;99.90;;;;;;4957445;29;20178;-89
2022/11/07 07:55:31;;;;;;;4.93;2.90;;;13.00;99.90;;;;;;4957461;29;20175;-91
2022/11/07 07:57:56;;;;;;;5.87;2.87;;;13.00;99.90;;;;;;4957421;29;20178;-88
2022/11/07 08:00:22;;;;;;;11.10;2.63;;;13.00;99.90;;;;;;4957264;29;20183;-89
2022/11/07 08:02:47;;;;;;;12.37;2.43;;;13.00;99.90;;;;;;4956891;29;20664;-89
2022/11/07 08:05:14;;;;;;;7.47;2.63;;;13.00;99.90;;;;;;4956956;29;20186;-90
2022/11/07 08:07:50;;;;;;;6.37;2.07;;;13.00;99.90;;;;;;4956837;29;20272;-88
2022/11/07 08:10:17;;;;;;;5.03;2.37;;;13.00;99.90;;;;;;4956958;29;20422;-89
2022/11/07 08:12:43;;;;;;;10.57;2.60;;;13.10;99.90;;;;;;4958070;29;20537;-87
2022/11/07 08:15:10;;;;;;;9.93;2.30;;;13.00;99.90;;;;;;4957157;29;20416;-89
2022/11/07 08:17:36;;;;;;;5.37;2.30;;;12.90;99.90;;;;;;4963576;29;20433;-90
2022/11/07 08:20:01;;;;;;;5.83;2.50;;;13.20;99.90;;;;;;4957046;29;20422;-88
2022/11/07 08:22:27;;;;;;;7.10;2.40;;;13.20;99.90;;;;;;4957266;29;20680;-93
2022/11/07 08:24:52;;;;;;;3.10;2.03;;;13.20;99.90;;;;;;4965021;29;20171;-92
2022/11/07 08:27:18;;;;;;;7.03;2.40;;;13.30;99.90;;;;;;4957508;29;20222;-88
2022/11/07 08:29:43;;;;;;;6.20;2.67;;;13.30;99.90;;;;;;4956145;29;20174;-86
2022/11/07 08:32:08;;;;;;;12.47;2.90;;;13.40;99.90;;;;;;4957443;29;20261;-89
2022/11/07 08:34:34;;;;;;;5.40;2.10;;;13.50;99.90;;;;;;4956680;29;20642;-84
2022/11/07 08:36:59;;;;;;;8.23;2.43;;;13.60;99.90;;;;;;4956000;29;20179;-84
2022/11/07 08:39:25;;;;;;;5.50;2.13;;;13.60;99.90;;;;;;4956023;29;20175;-86
2022/11/07 08:41:50;;;;;;;5.90;1.97;;;13.70;99.90;;;;;;4956357;29;20193;-88
2022/11/07 08:44:16;;;;;;;11.30;2.63;;;13.80;99.90;;;;;;4956376;29;20178;-89
2022/11/07 08:46:42;;;;;;;3.30;1.87;;;13.80;99.90;;;;;;4955868;29;20225;-86
2022/11/07 08:49:07;;;;;;;8.57;2.10;;;13.80;99.90;;;;;;4955500;28;20182;-90
2022/11/07 08:51:33;;;;;;;4.90;2.13;;;13.80;99.90;;;;;;4955873;29;20178;-90
2022/11/07 08:53:58;;;;;;;9.90;2.90;;;13.80;99.90;;;;;;4955958;29;20193;-88
2022/11/07 08:56:24;;;;;;;5.00;1.97;;;13.80;99.90;;;;;;4955979;29;20245;-89
2022/11/07 08:58:49;;;;;;;8.60;2.40;;;13.80;99.90;;;;;;4956038;29;20225;-89
2022/11/07 09:01:15;;;;;;;7.40;1.93;;;13.80;99.90;;;;;;4955871;29;20642;-90
2022/11/07 09:03:41;;;;;;;9.80;3.30;;;14.00;99.90;;;;;;4955944;29;20183;-89
2022/11/07 09:06:06;;;;;;;11.63;4.00;;;13.90;99.90;;;;;;4955899;29;20913;-87
2022/11/07 09:08:32;;;;;;;7.80;2.40;;;13.90;99.90;;;;;;4955984;29;20187;-88
2022/11/07 09:11:02;;;;;;;4.33;2.07;;;13.90;99.90;;;;;;4955991;29;20185;-89
2022/11/07 09:13:29;;;;;;;8.23;2.33;;;13.90;99.90;;;;;;4955869;29;20208;-88
2022/11/07 09:15:59;;;;;;;5.60;1.83;;;14.00;99.90;;;;;;4956171;29;20441;-89
2022/11/07 09:18:25;;;;;;;8.33;2.80;;;14.00;99.90;;;;;;4957135;29;20513;-90
2022/11/07 09:20:51;;;;;;;7.07;2.63;;;14.10;99.90;;;;;;4956153;29;20468;-85
2022/11/07 09:23:17;;;;;;;10.57;2.33;;;14.10;99.90;;;;;;4954107;29;20428;-84
2022/11/07 09:25:47;;;;;;;10.43;2.47;;;14.10;99.90;;;;;;4958357;29;20214;-94
2022/11/07 09:28:14;;;;;;;10.37;2.43;;;14.00;99.90;;;;;;4971311;28;20222;-95
2022/11/07 09:30:39;;;;;;;9.70;2.37;;;14.10;99.90;;;;;;4979091;28;20457;-94
2022/11/07 09:33:05;;;;;;;4.80;2.20;;;14.20;99.90;;;;;;4964460;29;20437;-95
2022/11/07 09:35:30;;;;;;;7.50;2.40;;;14.30;99.90;;;;;;4966639;29;20174;-92
2022/11/07 09:37:56;;;;;;;7.63;2.30;;;14.20;99.90;;;;;;4967414;29;20182;-93
2022/11/07 09:41:04;;;;;;;5.50;2.20;;;14.30;99.90;;;;;;4967956;29;20186;-92
2022/11/07 09:43:51;;;;;;;2.03;1.50;;;14.30;99.90;;;;;;4981518;23;20290;-95
2022/11/07 09:46:45;;;;;;;4.10;2.20;;;14.30;99.90;;;;;;4959836;29;20988;-92
2022/11/07 09:49:22;;;;;;;5.20;2.20;;;14.30;99.90;;;;;;4958115;29;20517;-94
2022/11/07 09:52:04;;;;;;;6.13;2.27;;;14.20;99.90;;;;;;4958223;29;20764;-94
2022/11/07 09:54:36;;;;;;;9.07;2.30;;;14.30;99.90;;;;;;4960844;29;20444;-92
2022/11/07 09:57:02;;;;;;;11.13;2.73;;;14.40;99.90;;;;;;4954550;29;20422;-90
2022/11/07 09:59:54;;;;;;;8.40;2.80;;;14.40;99.90;;;;;;4954433;29;20437;-90
2022/11/07 10:02:24;;;;;;;4.97;1.90;;;14.40;99.90;;;;;;4963632;28;20430;-93
2022/11/07 10:04:56;;;;;;;6.97;1.90;;;14.50;99.90;;;;;;4959039;29;20430;-87
2022/11/07 10:07:30;;;;;;;4.43;1.97;;;14.50;99.90;;;;;;4964380;29;20936;-93
2022/11/07 10:10:25;;;;;;;5.83;2.33;;;14.50;99.90;;;;;;4965417;29;20460;-95
2022/11/07 10:13:07;;;;;;;4.90;3.70;;;14.50;99.90;;;;;;4963943;29;20426;-96
2022/11/07 10:15:47;;;;;;;9.17;2.30;;;14.60;99.90;;;;;;4969026;29;20868;-95
2022/11/07 10:18:32;;;;;;;20.10;4.17;;;14.50;99.90;;;;;;4963811;29;20425;-92
2022/11/07 10:21:10;;;;;;;10.10;2.30;;;14.50;99.90;;;;;;4963684;29;20484;-86
2022/11/07 10:24:21;;;;;;;13.23;2.40;;;14.40;99.90;;;;;;4958799;29;21014;-90
2022/11/07 10:26:47;;;;;;;5.33;2.10;;;14.50;99.90;;;;;;4914487;29;20465;-89
2022/11/07 10:29:18;;;;;;;6.40;2.27;;;14.50;99.90;;;;;;4963447;29;20418;-96
2022/11/07 10:31:56;;;;;;;6.30;1.97;;;14.30;99.90;;;;;;4960665;29;20187;-91
2022/11/07 10:34:39;;;;;;;7.80;2.23;;;14.20;99.90;;;;;;4968708;29;20417;-95
2022/11/07 10:37:04;;;;;;;6.00;1.90;;;14.20;99.90;;;;;;4955122;29;20429;-94
2022/11/07 10:39:31;;;;;;;7.03;2.17;;;14.20;99.90;;;;;;4958395;29;20418;-83
2022/11/07 10:41:59;;;;;;;5.50;1.97;;;14.10;99.90;;;;;;4958281;29;20175;-92
2022/11/07 10:44:28;;;;;;;8.17;2.40;;;14.20;99.90;;;;;;4960592;29;20493;-92
2022/11/07 10:46:53;;;;;;;6.70;2.10;;;14.20;99.90;;;;;;4960468;29;20493;-90
2022/11/07 10:49:25;;;;;;;6.27;2.20;;;14.10;99.90;;;;;;4959160;29;20426;-92
2022/11/07 10:51:52;;;;;;;8.30;1.97;;;14.10;99.90;;;;;;4958995;29;20201;-92
2022/11/07 10:54:24;;;;;;;6.77;1.90;;;14.10;99.90;;;;;;5002406;23;20491;-95
2022/11/07 10:57:21;;;;;;;2.37;1.70;;;14.10;99.90;;;;;;5403513;23;20967;-95
2022/11/07 10:59:57;;;;;;;4.87;1.77;;;14.10;99.90;;;;;;4959392;29;20442;-92
2022/11/07 11:02:29;;;;;;;2.83;1.83;;;13.80;99.90;;;;;;4959545;29;20465;-90
2022/11/07 11:05:03;;;;;;;5.60;2.00;;;13.80;99.90;;;;;;4959273;29;20430;-93
2022/11/07 11:07:34;;;;;;;7.20;2.30;;;13.80;99.90;;;;;;4959135;29;20472;-86
2022/11/07 11:10:01;;;;;;;5.70;2.50;;;13.80;99.90;;;;;;4957791;29;20425;-88
2022/11/07 11:12:32;;;;;;;4.90;2.03;;;13.90;99.90;;;;;;4956868;28;20484;-87
2022/11/07 11:15:14;;;;;;;3.10;2.00;;;13.60;99.90;;;;;;4957345;29;20442;-87
2022/11/07 11:17:40;;;;;;;6.43;1.87;;;13.60;99.90;;;;;;4958007;29;20426;-95
2022/11/07 11:20:27;;;;;;;6.43;2.10;;;13.70;99.90;;;;;;4969087;29;20433;-94
2022/11/07 11:22:53;;;;;;;6.03;2.53;;;13.80;99.90;;;;;;4961455;29;20198;-95
2022/11/07 11:25:20;;;;;;;2.73;2.20;;;13.80;99.90;;;;;;4961103;29;20709;-92
2022/11/07 11:28:04;;;;;;;5.30;2.70;;;13.80;99.90;;;;;;4963925;29;20527;-92
2022/11/07 11:30:34;;;;;;;8.30;2.83;;;13.90;99.90;;;;;;4960283;29;20461;-93
2022/11/07 11:33:10;;;;;;;4.57;2.50;;;13.80;99.90;;;;;;4959735;29;20839;-93
2022/11/07 11:35:57;;;;;;;13.60;3.23;;;13.70;99.90;;;;;;4959389;29;20426;-92
2022/11/07 11:38:30;;;;;;;6.67;2.63;;;13.70;99.90;;;;;;4959283;29;20434;-87
2022/11/07 11:41:23;;;;;;;5.57;2.80;;;13.70;99.90;;;;;;4957270;29;20430;-81
2022/11/07 11:44:01;;;;;;;7.73;3.97;;;13.80;99.90;;;;;;4956557;29;20434;-83
2022/11/07 11:46:45;;;;;;;5.83;2.50;;;14.00;99.90;;;;;;4956259;29;20461;-80
2022/11/07 11:49:18;;;;;;;7.37;3.00;;;14.00;99.90;;;;;;4956693;29;20426;-80
2022/11/07 11:51:56;;;;;;;4.07;2.30;;;14.20;99.90;;;;;;4956732;29;20421;-81
2022/11/07 11:54:22;;;;;;;6.60;3.13;;;14.30;99.90;;;;;;4956527;29;20442;-80
2022/11/07 11:56:52;;;;;;;8.13;2.53;;;14.40;99.90;;;;;;4956134;28;20520;-81
2022/11/07 11:59:42;;;;;;;5.43;2.90;;;14.40;99.90;;;;;;4956569;29;20182;-81
2022/11/07 12:02:39;;;;;;;7.20;3.03;;;14.40;99.90;;;;;;4956987;29;20839;-81
2022/11/07 12:05:43;;;;;;;8.80;2.80;;;14.50;99.90;;;;;;4956373;29;20444;-81
2022/11/07 12:08:12;;;;;;;7.77;2.60;;;14.60;99.90;;;;;;4956619;29;20481;-81
2022/11/07 12:10:46;;;;;;;6.37;2.10;;;14.70;99.90;;;;;;4957929;29;20421;-81
2022/11/07 12:13:46;;;;;;;5.13;2.13;;;14.70;99.90;;;;;;4940538;29;20913;-79
2022/11/07 12:16:43;;;;;;;9.93;2.60;;;14.70;99.90;;;;;;4955982;29;20485;-76
2022/11/07 12:19:35;;;;;;;9.40;2.90;;;14.80;99.90;;;;;;4956522;29;20505;-83
2022/11/07 12:22:19;;;;;;;6.97;2.47;;;14.80;99.90;;;;;;4956094;29;21130;-80
2022/11/07 12:25:01;;;;;;;8.13;3.30;;;14.90;99.90;;;;;;4955954;28;20424;-78
2022/11/07 12:28:03;;;;;;;13.93;3.40;;;14.90;99.90;;;;;;4956181;29;21008;-84
2022/11/07 12:31:01;;;;;;;6.50;2.67;;;14.90;99.90;;;;;;4956026;29;20437;-77
2022/11/07 12:33:46;;;;;;;5.00;2.43;;;14.80;99.90;;;;;;4955886;29;20454;-82
2022/11/07 12:36:14;;;;;;;6.37;3.53;;;14.70;99.90;;;;;;4956169;29;20441;-83
2022/11/07 12:38:40;;;;;;;6.40;2.20;;;14.70;99.90;;;;;;4955688;29;20445;-83
2022/11/07 12:41:29;;;;;;;9.73;2.50;;;14.70;99.90;;;;;;4955825;29;20441;-83
2022/11/07 12:44:22;;;;;;;12.60;2.30;;;14.60;99.90;;;;;;4955619;29;20178;-82
2022/11/07 12:46:56;;;;;;;3.60;2.67;;;14.50;99.90;;;;;;4955629;29;20457;-84
2022/11/07 12:49:31;;;;;;;10.83;2.97;;;14.50;99.90;;;;;;4955569;29;20430;-84
2022/11/07 12:52:22;;;;;;;9.10;3.20;;;14.60;99.90;;;;;;4955121;29;20424;-79
2022/11/07 12:54:57;;;;;;;7.53;2.43;;;14.60;99.90;;;;;;4955612;29;20433;-79
2022/11/07 12:57:31;;;;;;;14.70;3.53;;;14.70;99.90;;;;;;4955202;28;20462;-79
2022/11/07 13:00:18;;;;;;;6.13;3.23;;;14.80;99.90;;;;;;4955438;29;20780;-79
2022/11/07 13:02:49;;;;;;;4.20;2.37;;;14.90;99.90;;;;;;4955360;29;20427;-80
2022/11/07 13:05:37;;;;;;;7.77;2.67;;;14.90;99.90;;;;;;4955345;29;20448;-80
2022/11/07 13:08:14;;;;;;;7.00;2.80;;;14.90;99.90;;;;;;4955174;29;20473;-80
2022/11/07 13:10:56;;;;;;;5.57;2.60;;;15.00;99.90;;;;;;4955426;29;20472;-83
2022/11/07 13:13:59;;;;;;;12.10;2.60;;;15.00;99.90;;;;;;4955314;29;20465;-84
2022/11/07 13:16:30;;;;;;;5.27;2.33;;;15.00;99.90;;;;;;4955198;29;20425;-83
2022/11/07 13:19:26;;;;;;;8.73;2.50;;;15.10;99.90;;;;;;4955161;29;20518;-83
2022/11/07 13:22:17;;;;;;;6.73;2.03;;;15.30;99.90;;;;;;4955236;29;20434;-89
2022/11/07 13:25:11;;;;;;;5.80;2.13;;;15.30;99.90;;;;;;4955155;29;20438;-85
2022/11/07 13:27:44;;;;;;;5.30;1.83;;;15.30;99.90;;;;;;4938108;29;20481;-85
2022/11/07 13:30:12;;;;;;;5.17;1.70;;;15.30;99.90;;;;;;4955390;29;20782;-83
2022/11/07 13:32:39;;;;;;;9.47;2.37;;;15.30;99.90;;;;;;4955014;29;20438;-84
2022/11/07 13:35:23;;;;;;;10.03;2.60;;;15.30;99.90;;;;;;4954893;29;20827;-87
2022/11/07 13:38:08;;;;;;;10.93;3.10;;;15.40;99.90;;;;;;4955183;29;20438;-85
2022/11/07 13:40:48;;;;;;;9.53;2.13;;;15.30;99.90;;;;;;4955099;29;20426;-85
2022/11/07 13:43:25;;;;;;;4.83;2.17;;;15.30;99.90;;;;;;4955125;29;20449;-84
2022/11/07 13:46:01;;;;;;;4.30;2.67;;;15.40;99.90;;;;;;4954637;29;20433;-84
2022/11/07 13:48:48;;;;;;;4.50;2.10;;;15.40;99.90;;;;;;4954907;29;20900;-84
2022/11/07 13:51:36;;;;;;;5.77;2.13;;;15.30;99.90;;;;;;4954852;29;20430;-86
2022/11/07 13:54:28;;;;;;;4.33;2.87;;;15.30;99.90;;;;;;4954743;29;20796;-86
2022/11/07 13:57:26;;;;;;;7.50;2.53;;;15.30;99.90;;;;;;4954593;28;20577;-87
2022/11/07 13:59:53;;;;;;;4.30;1.90;;;15.30;99.90;;;;;;4954716;29;20508;-84
2022/11/07 14:02:24;;;;;;;9.07;4.33;;;15.30;99.90;;;;;;4954809;29;20496;-85
2022/11/07 14:04:52;;;;;;;4.00;2.50;;;15.30;99.90;;;;;;4953943;29;20425;-84
2022/11/07 14:07:19;;;;;;;3.60;2.07;;;15.30;99.90;;;;;;4954327;29;20586;-83
2022/11/07 14:09:45;;;;;;;10.73;2.50;;;15.20;99.90;;;;;;4954708;29;20433;-84
2022/11/07 14:12:20;;;;;;;4.77;2.43;;;15.20;99.90;;;;;;4954489;29;20957;-84
2022/11/07 14:14:48;;;;;;;6.10;1.90;;;15.20;99.90;;;;;;4954940;29;20840;-83
2022/11/07 14:17:16;;;;;;;4.17;1.70;;;15.10;99.90;;;;;;4954575;29;20438;-84
2022/11/07 14:19:42;;;;;;;7.73;2.20;;;15.10;99.90;;;;;;4954372;29;20422;-83
2022/11/07 14:22:25;;;;;;;4.07;1.67;;;15.10;99.90;;;;;;4954718;29;20754;-83
2022/11/07 14:24:56;;;;;;;10.27;1.83;;;15.00;99.90;;;;;;4954478;29;20186;-83
2022/11/07 14:27:23;;;;;;;4.77;1.70;;;15.10;99.90;;;;;;4954600;29;20482;-83
2022/11/07 14:29:57;;;;;;;6.30;2.13;;;15.20;99.90;;;;;;4954447;29;20787;-83
2022/11/07 14:32:23;;;;;;;8.60;2.87;;;15.10;99.90;;;;;;4954594;29;20441;-83
2022/11/07 14:34:51;;;;;;;4.73;2.30;;;15.10;99.90;;;;;;4954420;29;20489;-83
2022/11/07 14:37:23;;;;;;;5.83;1.80;;;15.20;99.90;;;;;;4954395;29;20512;-84
2022/11/07 14:39:50;;;;;;;3.77;2.00;;;15.20;99.90;;;;;;4954533;29;20655;-84
2022/11/07 14:42:19;;;;;;;5.00;2.10;;;15.20;99.90;;;;;;4954549;29;20430;-83
2022/11/07 14:44:48;;;;;;;8.40;2.00;;;15.20;99.90;;;;;;4954307;29;20422;-83
2022/11/07 14:47:22;;;;;;;21.33;2.37;;;15.30;99.90;;;;;;4955276;28;20636;-83
2022/11/07 14:49:50;;;;;;;2.47;1.67;;;15.20;99.90;;;;;;4957929;29;20523;-83
2022/11/07 14:52:18;;;;;;;3.57;1.90;;;15.20;99.90;;;;;;4957954;29;20445;-82
2022/11/07 14:54:46;;;;;;;6.03;1.80;;;15.20;99.90;;;;;;4957461;29;20574;-84
2022/11/07 14:57:12;;;;;;;5.90;2.10;;;15.20;99.90;;;;;;4957739;28;20481;-84
2022/11/07 14:59:38;;;;;;;4.60;2.20;;;15.20;99.90;;;;;;4957892;29;20430;-85
2022/11/07 15:02:16;;;;;;;4.00;1.67;;;15.30;99.90;;;;;;4951510;29;20514;-86
2022/11/07 15:04:44;;;;;;;3.40;1.57;;;15.30;99.90;;;;;;4944748;29;20435;-83
2022/11/07 15:07:10;;;;;;;6.70;2.17;;;15.30;99.90;;;;;;4954955;29;20466;-85
2022/11/07 15:09:36;;;;;;;2.50;1.47;;;15.20;99.90;;;;;;4957658;29;20442;-85
2022/11/07 15:12:13;;;;;;;5.73;2.27;;;15.10;99.90;;;;;;4954520;29;20427;-86
2022/11/07 15:14:38;;;;;;;5.23;2.27;;;15.10;99.90;;;;;;4949281;29;20213;-88
2022/11/07 15:17:04;;;;;;;8.70;1.97;;;15.20;99.90;;;;;;4949648;29;20466;-85
2022/11/07 15:19:33;;;;;;;7.83;2.13;;;15.20;99.90;;;;;;4957633;29;20186;-89
2022/11/07 15:22:03;;;;;;;4.10;2.27;;;15.10;99.90;;;;;;4940924;29;20183;-85
2022/11/07 15:24:41;;;;;;;4.87;2.13;;;15.00;99.90;;;;;;4938675;29;20439;-89
2022/11/07 15:27:20;;;;;;;7.20;2.10;;;15.00;99.90;;;;;;4943999;29;20497;-88
2022/11/07 15:30:00;;;;;;;5.53;1.93;;;15.10;99.90;;;;;;4951656;29;20520;-86
2022/11/07 15:32:39;;;;;;;7.90;2.10;;;15.00;99.90;;;;;;4949689;29;20422;-91
2022/11/07 15:35:16;;;;;;;6.83;2.67;;;15.00;99.90;;;;;;4952502;29;20438;-90
2022/11/07 15:38:00;;;;;;;6.20;2.00;;;15.00;99.90;;;;;;4956185;29;20426;-89
2022/11/07 15:40:27;;;;;;;6.33;2.30;;;15.00;99.90;;;;;;4950161;29;21060;-89
2022/11/07 15:42:53;;;;;;;6.67;2.93;;;15.10;99.90;;;;;;4945979;29;20823;-89
2022/11/07 15:45:19;;;;;;;7.00;2.27;;;15.00;99.90;;;;;;4940851;29;20443;-89
2022/11/07 15:47:45;;;;;;;6.10;2.30;;;15.00;99.90;;;;;;4939564;29;20530;-88
2022/11/07 15:50:23;;;;;;;3.43;1.80;;;15.00;99.90;;;;;;4954768;29;20175;-82
2022/11/07 15:52:49;;;;;;;4.53;2.03;;;15.00;99.90;;;;;;4956275;29;20438;-83
2022/11/07 15:55:18;;;;;;;5.63;1.97;;;15.00;99.90;;;;;;4945541;29;20446;-82
2022/11/07 15:57:45;;;;;;;9.20;2.90;;;15.00;99.90;;;;;;4947474;29;20959;-83
2022/11/07 16:00:16;;;;;;;6.50;2.07;;;14.90;99.90;;;;;;4945446;28;20439;-85
2022/11/07 16:02:42;;;;;;;8.23;2.13;;;15.00;99.90;;;;;;4946027;29;20512;-82
2022/11/07 16:05:08;;;;;;;5.23;2.10;;;15.00;99.90;;;;;;4947532;29;20578;-82
2022/11/07 16:07:34;;;;;;;5.03;1.97;;;15.00;99.90;;;;;;4944381;29;20211;-82
2022/11/07 16:10:00;;;;;;;5.17;2.63;;;14.90;99.90;;;;;;4952247;29;20185;-80
2022/11/07 16:12:26;;;;;;;6.10;2.30;;;14.90;99.90;;;;;;4955220;29;20473;-76
2022/11/07 16:14:54;;;;;;;2.73;1.90;;;14.90;99.90;;;;;;4955138;29;20479;-85
2022/11/07 16:17:19;;;;;;;5.80;1.70;;;14.80;99.90;;;;;;4955895;29;20553;-83
2022/11/07 16:19:46;;;;;;;4.60;1.53;;;15.00;99.90;;;;;;4938079;29;20430;-76
2022/11/07 16:22:13;;;;;;;7.17;2.40;;;14.90;99.90;;;;;;4955025;29;20179;-78
2022/11/07 16:24:38;;;;;;;5.70;2.07;;;14.90;99.90;;;;;;4955039;29;20518;-76
2022/11/07 16:27:04;;;;;;;4.37;1.93;;;14.90;99.90;;;;;;4955557;29;21072;-79
2022/11/07 16:29:31;;;;;;;3.20;2.37;;;14.90;99.90;;;;;;4954430;29;20535;-80
2022/11/07 16:31:56;;;;;;;3.30;2.00;;;14.80;99.90;;;;;;4954907;29;20437;-80
2022/11/07 16:34:22;;;;;;;6.37;2.17;;;14.90;99.90;;;;;;4955041;29;20945;-75
2022/11/07 16:36:48;;;;;;;4.00;1.90;;;14.90;99.90;;;;;;4953622;29;20237;-79
2022/11/07 16:39:21;;;;;;;5.10;2.07;;;14.90;99.90;;;;;;4954346;29;20273;-79
2022/11/07 16:41:49;;;;;;;9.50;2.60;;;14.90;99.90;;;;;;4954103;29;20553;-78
2022/11/07 16:44:15;;;;;;;3.73;2.13;;;14.90;99.90;;;;;;4954808;29;20442;-77
2022/11/07 16:46:41;;;;;;;3.17;2.40;;;14.90;99.90;;;;;;4954694;29;20871;-77
2022/11/07 16:49:30;;;;;;;2.77;2.13;;;14.90;99.90;;;;;;4954699;29;20706;-75
2022/11/07 16:51:56;;;;;;;2.97;1.60;;;15.00;99.90;;;;;;4954730;29;20414;-77
2022/11/07 16:54:22;;;;;;;7.43;2.57;;;14.90;99.90;;;;;;4954687;29;20948;-76
2022/11/07 16:56:51;;;;;;;4.03;2.00;;;14.90;99.90;;;;;;4945021;28;20453;-78
2022/11/07 16:59:22;;;;;;;4.90;2.60;;;14.90;99.90;;;;;;4973978;28;20209;-77
2022/11/07 17:01:49;;;;;;;5.20;2.43;;;14.90;99.90;;;;;;4968347;28;20428;-77
2022/11/07 17:04:15;;;;;;;6.87;2.37;;;14.90;99.90;;;;;;4954809;29;20782;-83
2022/11/07 17:06:46;;;;;;;6.23;2.67;;;14.90;99.90;;;;;;4954377;29;20462;-83